Colorado do Oeste, Brazil
Current Conditions -  °F | °C
As of 12:00 AM on Wednesday 28 Jan 2015 (Local Time) from SBVH Reporting Station
Light Rain Light Rain  
Wind Chill: 70°   Ceiling: 700
Heat Index: 70°   Visibility: 6mi
Dew Point: 70°   Wind: 3mph
Humidity: 100%   Direction: 300°WNW
Pressure: 30"   Gusts: NA
Location:  13.12°S, 60.54°W
Report Text: SBVH 280400Z 30003KT 9999 -RA BKN007 BKN080 21/21 Q1016
Loading
Personal Weather Stations






























Interactive Weather Map New forecast layout! Learn more

10-Day Weather Forecast

Advertisements
Track Severe Weather on mobile